sensor_id;sensor_type;location;lat;lon;timestamp;pressure;altitude;pressure_sealevel;temperature;humidity
71476;BME280;59286;59.274;17.974;2022-09-27T00:01:58;99729.63;;;10.78;86.76
71476;BME280;59286;59.274;17.974;2022-09-27T00:04:24;99755.75;;;10.95;86.89
71476;BME280;59286;59.274;17.974;2022-09-27T00:06:50;99726.84;;;10.83;87.40
71476;BME280;59286;59.274;17.974;2022-09-27T00:09:15;99739.13;;;10.91;87.49
71476;BME280;59286;59.274;17.974;2022-09-27T00:11:41;99746.81;;;10.96;88.01
71476;BME280;59286;59.274;17.974;2022-09-27T00:14:08;99747.28;;;10.90;87.94
71476;BME280;59286;59.274;17.974;2022-09-27T00:16:36;99753.13;;;10.95;88.44
71476;BME280;59286;59.274;17.974;2022-09-27T00:19:07;99747.75;;;10.92;88.73
71476;BME280;59286;59.274;17.974;2022-09-27T00:21:34;99739.31;;;10.86;88.11
71476;BME280;59286;59.274;17.974;2022-09-27T00:23:59;99742.28;;;10.76;88.27
71476;BME280;59286;59.274;17.974;2022-09-27T00:26:25;99766.16;;;10.83;88.04
71476;BME280;59286;59.274;17.974;2022-09-27T00:28:51;99768.31;;;10.81;87.78
71476;BME280;59286;59.274;17.974;2022-09-27T00:31:25;99766.78;;;10.80;86.96
71476;BME280;59286;59.274;17.974;2022-09-27T00:33:53;99746.97;;;10.62;87.33
71476;BME280;59286;59.274;17.974;2022-09-27T00:36:21;99742.81;;;10.61;87.12
71476;BME280;59286;59.274;17.974;2022-09-27T00:38:47;99760.63;;;10.76;87.36
71476;BME280;59286;59.274;17.974;2022-09-27T00:41:15;99774.03;;;10.83;87.46
71476;BME280;59286;59.274;17.974;2022-09-27T00:43:47;99746.31;;;10.65;87.31
71476;BME280;59286;59.274;17.974;2022-09-27T00:46:18;99755.88;;;10.69;87.03
71476;BME280;59286;59.274;17.974;2022-09-27T00:48:46;99753.72;;;10.63;87.44
71476;BME280;59286;59.274;17.974;2022-09-27T00:51:12;99761.44;;;10.68;87.44
71476;BME280;59286;59.274;17.974;2022-09-27T00:53:44;99748.72;;;10.49;87.33
71476;BME280;59286;59.274;17.974;2022-09-27T00:56:17;99769.47;;;10.63;87.91
71476;BME280;59286;59.274;17.974;2022-09-27T00:58:49;99747.19;;;10.40;88.08
71476;BME280;59286;59.274;17.974;2022-09-27T01:01:16;99759.66;;;10.43;88.49
71476;BME280;59286;59.274;17.974;2022-09-27T01:03:51;99779.09;;;10.42;88.81
71476;BME280;59286;59.274;17.974;2022-09-27T01:06:20;99786.16;;;10.50;89.42
71476;BME280;59286;59.274;17.974;2022-09-27T01:08:46;99787.25;;;10.49;89.41
71476;BME280;59286;59.274;17.974;2022-09-27T01:11:27;99787.25;;;10.49;89.71
71476;BME280;59286;59.274;17.974;2022-09-27T01:16:37;99766.59;;;10.47;90.16
71476;BME280;59286;59.274;17.974;2022-09-27T01:19:12;99785.19;;;10.63;90.49
71476;BME280;59286;59.274;17.974;2022-09-27T01:38:18;99750.75;;;10.35;90.54
71476;BME280;59286;59.274;17.974;2022-09-27T01:43:39;99786.63;;;10.43;91.23
71476;BME280;59286;59.274;17.974;2022-09-27T01:46:15;99782.50;;;10.34;91.25
71476;BME280;59286;59.274;17.974;2022-09-27T01:48:44;99763.28;;;10.13;91.34
71476;BME280;59286;59.274;17.974;2022-09-27T01:51:16;99796.97;;;10.31;91.18
71476;BME280;59286;59.274;17.974;2022-09-27T01:53:46;99780.38;;;10.19;91.05
71476;BME280;59286;59.274;17.974;2022-09-27T01:56:48;99791.13;;;10.26;91.61
71476;BME280;59286;59.274;17.974;2022-09-27T01:59:22;99788.06;;;10.24;91.58
71476;BME280;59286;59.274;17.974;2022-09-27T02:01:53;99777.47;;;10.12;92.02
71476;BME280;59286;59.274;17.974;2022-09-27T02:04:26;99797.63;;;10.20;91.98
71476;BME280;59286;59.274;17.974;2022-09-27T02:06:57;99776.22;;;10.01;92.24
71476;BME280;59286;59.274;17.974;2022-09-27T02:09:34;99801.50;;;10.14;92.18
71476;BME280;59286;59.274;17.974;2022-09-27T02:12:06;99775.91;;;9.94;92.25
71476;BME280;59286;59.274;17.974;2022-09-27T02:14:41;99787.16;;;10.03;92.21
71476;BME280;59286;59.274;17.974;2022-09-27T02:20:07;99789.91;;;9.98;92.71
71476;BME280;59286;59.274;17.974;2022-09-27T02:22:53;99807.66;;;10.09;93.01
71476;BME280;59286;59.274;17.974;2022-09-27T02:25:29;99783.59;;;9.99;92.31
71476;BME280;59286;59.274;17.974;2022-09-27T02:30:31;99772.69;;;9.97;93.14
71476;BME280;59286;59.274;17.974;2022-09-27T02:32:57;99791.63;;;10.11;93.33
71476;BME280;59286;59.274;17.974;2022-09-27T02:35:28;99783.59;;;10.07;93.47
71476;BME280;59286;59.274;17.974;2022-09-27T02:37:56;99795.47;;;10.22;93.29
71476;BME280;59286;59.274;17.974;2022-09-27T02:40:23;99789.16;;;10.23;93.13
71476;BME280;59286;59.274;17.974;2022-09-27T02:42:49;99801.00;;;10.29;93.12
71476;BME280;59286;59.274;17.974;2022-09-27T02:45:16;99788.50;;;10.26;92.64
71476;BME280;59286;59.274;17.974;2022-09-27T02:50:45;99800.22;;;10.28;92.80
71476;BME280;59286;59.274;17.974;2022-09-27T02:55:57;99799.91;;;10.38;93.11
71476;BME280;59286;59.274;17.974;2022-09-27T03:04:10;99791.75;;;10.40;92.85
71476;BME280;59286;59.274;17.974;2022-09-27T03:06:40;99788.34;;;10.39;92.69
71476;BME280;59286;59.274;17.974;2022-09-27T03:09:20;99784.34;;;10.42;92.96
71476;BME280;59286;59.274;17.974;2022-09-27T03:11:45;99798.63;;;10.53;92.61
71476;BME280;59286;59.274;17.974;2022-09-27T03:14:11;99787.25;;;10.49;92.97
71476;BME280;59286;59.274;17.974;2022-09-27T03:16:36;99781.53;;;10.47;92.86
71476;BME280;59286;59.274;17.974;2022-09-27T03:19:02;99805.06;;;10.64;92.74
71476;BME280;59286;59.274;17.974;2022-09-27T03:21:27;99805.69;;;10.69;92.69
71476;BME280;59286;59.274;17.974;2022-09-27T03:23:53;99787.97;;;10.58;92.56
71476;BME280;59286;59.274;17.974;2022-09-27T03:26:18;99785.03;;;10.59;92.33
71476;BME280;59286;59.274;17.974;2022-09-27T03:28:44;99788.56;;;10.63;92.90
71476;BME280;59286;59.274;17.974;2022-09-27T03:31:09;99792.75;;;10.64;92.50
71476;BME280;59286;59.274;17.974;2022-09-27T03:33:34;99815.19;;;10.83;92.05
71476;BME280;59286;59.274;17.974;2022-09-27T03:36:00;99814.25;;;10.87;92.14
71476;BME280;59286;59.274;17.974;2022-09-27T03:38:25;99808.09;;;10.83;91.67
71476;BME280;59286;59.274;17.974;2022-09-27T03:40:51;99773.63;;;10.64;91.22
71476;BME280;59286;59.274;17.974;2022-09-27T03:43:17;99787.47;;;10.73;91.17
71476;BME280;59286;59.274;17.974;2022-09-27T03:45:42;99811.00;;;10.90;91.09
71476;BME280;59286;59.274;17.974;2022-09-27T03:48:10;99810.34;;;10.93;91.22
71476;BME280;59286;59.274;17.974;2022-09-27T03:50:35;99800.25;;;10.83;91.25
71476;BME280;59286;59.274;17.974;2022-09-27T03:53:01;99809.91;;;10.91;90.84
71476;BME280;59286;59.274;17.974;2022-09-27T03:55:26;99790.53;;;10.75;91.18
71476;BME280;59286;59.274;17.974;2022-09-27T03:57:52;99786.88;;;10.67;91.39
71476;BME280;59286;59.274;17.974;2022-09-27T04:00:17;99795.97;;;10.70;91.77
71476;BME280;59286;59.274;17.974;2022-09-27T04:02:43;99777.22;;;10.51;92.00
71476;BME280;59286;59.274;17.974;2022-09-27T04:05:09;99798.75;;;10.65;91.67
71476;BME280;59286;59.274;17.974;2022-09-27T04:07:35;99775.56;;;10.38;92.30
71476;BME280;59286;59.274;17.974;2022-09-27T04:10:00;99809.41;;;10.60;92.27
71476;BME280;59286;59.274;17.974;2022-09-27T04:12:26;99804.06;;;10.48;92.75
71476;BME280;59286;59.274;17.974;2022-09-27T04:14:51;99802.78;;;10.54;92.79
71476;BME280;59286;59.274;17.974;2022-09-27T04:17:16;99792.34;;;10.45;92.84
71476;BME280;59286;59.274;17.974;2022-09-27T04:19:42;99802.50;;;10.47;92.56
71476;BME280;59286;59.274;17.974;2022-09-27T04:22:07;99803.13;;;10.44;92.61
71476;BME280;59286;59.274;17.974;2022-09-27T04:24:33;99796.06;;;10.36;92.52
71476;BME280;59286;59.274;17.974;2022-09-27T04:26:58;99812.69;;;10.40;92.52
71476;BME280;59286;59.274;17.974;2022-09-27T04:29:23;99819.47;;;10.41;92.44
71476;BME280;59286;59.274;17.974;2022-09-27T04:31:49;99824.69;;;10.41;92.87
71476;BME280;59286;59.274;17.974;2022-09-27T04:34:15;99827.63;;;10.39;92.73
71476;BME280;59286;59.274;17.974;2022-09-27T04:36:41;99819.31;;;10.37;92.63
71476;BME280;59286;59.274;17.974;2022-09-27T04:39:08;99818.25;;;10.30;92.83
71476;BME280;59286;59.274;17.974;2022-09-27T04:41:33;99821.34;;;10.32;92.50
71476;BME280;59286;59.274;17.974;2022-09-27T04:44:00;99796.56;;;10.12;93.04
71476;BME280;59286;59.274;17.974;2022-09-27T04:46:29;99827.34;;;10.32;92.98
71476;BME280;59286;59.274;17.974;2022-09-27T04:48:56;99828.13;;;10.33;92.79
71476;BME280;59286;59.274;17.974;2022-09-27T04:51:22;99805.50;;;10.20;92.79
71476;BME280;59286;59.274;17.974;2022-09-27T04:53:47;99821.97;;;10.29;92.69
71476;BME280;59286;59.274;17.974;2022-09-27T04:56:13;99815.50;;;10.18;92.71
71476;BME280;59286;59.274;17.974;2022-09-27T04:58:40;99830.28;;;10.22;92.73
71476;BME280;59286;59.274;17.974;2022-09-27T05:01:05;99817.06;;;10.10;93.03
71476;BME280;59286;59.274;17.974;2022-09-27T05:03:31;99838.75;;;10.19;93.13
71476;BME280;59286;59.274;17.974;2022-09-27T05:05:57;99825.06;;;10.14;93.53
71476;BME280;59286;59.274;17.974;2022-09-27T05:08:23;99844.78;;;10.20;93.38
71476;BME280;59286;59.274;17.974;2022-09-27T05:10:49;99839.22;;;10.13;93.33
71476;BME280;59286;59.274;17.974;2022-09-27T05:13:15;99839.06;;;10.18;93.46
71476;BME280;59286;59.274;17.974;2022-09-27T05:15:41;99852.47;;;10.25;93.26
71476;BME280;59286;59.274;17.974;2022-09-27T05:18:07;99839.06;;;10.26;93.36
71476;BME280;59286;59.274;17.974;2022-09-27T05:20:35;99833.81;;;10.26;93.17
71476;BME280;59286;59.274;17.974;2022-09-27T05:23:01;99815.34;;;10.23;93.19
71476;BME280;59286;59.274;17.974;2022-09-27T05:25:27;99839.34;;;10.42;92.87
71476;BME280;59286;59.274;17.974;2022-09-27T05:27:53;99830.75;;;10.33;93.18
71476;BME280;59286;59.274;17.974;2022-09-27T05:30:18;99807.81;;;10.21;92.47
71476;BME280;59286;59.274;17.974;2022-09-27T05:32:45;99847.00;;;10.55;92.83
71476;BME280;59286;59.274;17.974;2022-09-27T05:35:15;99827.19;;;10.46;92.56
71476;BME280;59286;59.274;17.974;2022-09-27T05:37:41;99829.91;;;10.58;92.55
71476;BME280;59286;59.274;17.974;2022-09-27T05:40:07;99817.13;;;10.56;91.98
71476;BME280;59286;59.274;17.974;2022-09-27T05:42:32;99821.88;;;10.63;92.08
71476;BME280;59286;59.274;17.974;2022-09-27T05:45:00;99844.94;;;10.78;91.75
71476;BME280;59286;59.274;17.974;2022-09-27T05:47:25;99832.63;;;10.79;91.41
71476;BME280;59286;59.274;17.974;2022-09-27T05:49:50;99821.09;;;10.71;91.31
71476;BME280;59286;59.274;17.974;2022-09-27T05:52:16;99799.56;;;10.57;91.33
71476;BME280;59286;59.274;17.974;2022-09-27T05:54:42;99840.03;;;10.85;91.22
71476;BME280;59286;59.274;17.974;2022-09-27T05:57:08;99811.38;;;10.63;91.30
71476;BME280;59286;59.274;17.974;2022-09-27T05:59:33;99838.16;;;10.86;91.77
71476;BME280;59286;59.274;17.974;2022-09-27T06:01:59;99845.41;;;10.89;91.43
71476;BME280;59286;59.274;17.974;2022-09-27T06:04:26;99836.75;;;10.88;91.35
71476;BME280;59286;59.274;17.974;2022-09-27T06:06:51;99811.34;;;10.80;90.63
71476;BME280;59286;59.274;17.974;2022-09-27T06:09:16;99819.94;;;10.89;90.70
71476;BME280;59286;59.274;17.974;2022-09-27T06:11:42;99855.78;;;11.14;91.10
71476;BME280;59286;59.274;17.974;2022-09-27T06:14:13;99832.53;;;11.04;90.51
71476;BME280;59286;59.274;17.974;2022-09-27T06:16:38;99844.19;;;11.15;90.76
71476;BME280;59286;59.274;17.974;2022-09-27T06:19:04;99839.72;;;11.16;90.60
71476;BME280;59286;59.274;17.974;2022-09-27T06:21:29;99865.88;;;11.33;90.33
71476;BME280;59286;59.274;17.974;2022-09-27T06:23:57;99849.41;;;11.24;90.32
71476;BME280;59286;59.274;17.974;2022-09-27T06:26:24;99869.22;;;11.42;90.49
71476;BME280;59286;59.274;17.974;2022-09-27T06:28:51;99849.34;;;11.32;89.71
71476;BME280;59286;59.274;17.974;2022-09-27T06:31:16;99856.44;;;11.40;90.10
71476;BME280;59286;59.274;17.974;2022-09-27T06:33:41;99838.88;;;11.32;89.84
71476;BME280;59286;59.274;17.974;2022-09-27T06:36:07;99859.63;;;11.46;90.23
71476;BME280;59286;59.274;17.974;2022-09-27T06:38:33;99877.13;;;11.62;89.46
71476;BME280;59286;59.274;17.974;2022-09-27T06:41:03;99882.22;;;11.67;89.30
71476;BME280;59286;59.274;17.974;2022-09-27T06:43:31;99883.59;;;11.74;89.52
71476;BME280;59286;59.274;17.974;2022-09-27T06:45:59;99876.47;;;11.74;88.86
71476;BME280;59286;59.274;17.974;2022-09-27T06:48:29;99883.22;;;11.84;88.57
71476;BME280;59286;59.274;17.974;2022-09-27T06:50:55;99883.16;;;11.92;88.86
71476;BME280;59286;59.274;17.974;2022-09-27T06:53:22;99889.56;;;12.03;88.47
71476;BME280;59286;59.274;17.974;2022-09-27T06:55:48;99886.94;;;12.03;88.71
71476;BME280;59286;59.274;17.974;2022-09-27T06:58:15;99891.47;;;12.15;88.30
71476;BME280;59286;59.274;17.974;2022-09-27T07:00:59;99891.59;;;12.18;87.59
71476;BME280;59286;59.274;17.974;2022-09-27T07:03:25;99874.94;;;12.14;87.35
71476;BME280;59286;59.274;17.974;2022-09-27T07:06:03;99890.91;;;12.30;87.42
71476;BME280;59286;59.274;17.974;2022-09-27T07:08:30;99890.38;;;12.36;87.57
71476;BME280;59286;59.274;17.974;2022-09-27T07:11:01;99873.91;;;12.27;86.83
71476;BME280;59286;59.274;17.974;2022-09-27T07:13:28;99890.19;;;12.41;87.29
71476;BME280;59286;59.274;17.974;2022-09-27T07:15:55;99879.56;;;12.38;86.94
71476;BME280;59286;59.274;17.974;2022-09-27T07:18:21;99889.03;;;12.51;87.30
71476;BME280;59286;59.274;17.974;2022-09-27T07:20:46;99864.47;;;12.47;87.18
71476;BME280;59286;59.274;17.974;2022-09-27T07:23:13;99881.38;;;12.58;87.02
71476;BME280;59286;59.274;17.974;2022-09-27T07:25:38;99885.22;;;12.60;86.35
71476;BME280;59286;59.274;17.974;2022-09-27T07:28:06;99903.31;;;12.74;86.55
71476;BME280;59286;59.274;17.974;2022-09-27T07:30:33;99902.25;;;12.75;86.74
71476;BME280;59286;59.274;17.974;2022-09-27T07:33:00;99894.41;;;12.66;86.48
71476;BME280;59286;59.274;17.974;2022-09-27T07:35:26;99879.19;;;12.60;86.54
71476;BME280;59286;59.274;17.974;2022-09-27T07:37:52;99910.13;;;12.75;86.26
71476;BME280;59286;59.274;17.974;2022-09-27T07:40:17;99895.75;;;12.73;86.08
71476;BME280;59286;59.274;17.974;2022-09-27T07:42:44;99884.78;;;12.71;85.88
71476;BME280;59286;59.274;17.974;2022-09-27T07:45:09;99875.69;;;12.68;86.03
71476;BME280;59286;59.274;17.974;2022-09-27T07:47:38;99897.66;;;12.84;85.20
71476;BME280;59286;59.274;17.974;2022-09-27T07:50:05;99903.13;;;12.91;85.50
71476;BME280;59286;59.274;17.974;2022-09-27T07:52:41;99892.50;;;12.88;85.16
71476;BME280;59286;59.274;17.974;2022-09-27T07:55:08;99907.69;;;13.03;85.65
71476;BME280;59286;59.274;17.974;2022-09-27T07:57:35;99912.63;;;13.04;84.77
71476;BME280;59286;59.274;17.974;2022-09-27T08:00:01;99907.59;;;13.11;85.01
71476;BME280;59286;59.274;17.974;2022-09-27T08:02:26;99919.88;;;13.19;84.43
71476;BME280;59286;59.274;17.974;2022-09-27T08:04:51;99910.13;;;13.20;83.60
71476;BME280;59286;59.274;17.974;2022-09-27T08:07:17;99909.56;;;13.14;83.73
71476;BME280;59286;59.274;17.974;2022-09-27T08:09:42;99927.78;;;13.19;83.89
71476;BME280;59286;59.274;17.974;2022-09-27T08:12:08;99909.31;;;13.07;83.89
71476;BME280;59286;59.274;17.974;2022-09-27T08:14:35;99896.06;;;13.04;83.71
71476;BME280;59286;59.274;17.974;2022-09-27T08:17:00;99918.59;;;13.25;84.57
71476;BME280;59286;59.274;17.974;2022-09-27T08:19:25;99922.41;;;13.28;83.77
71476;BME280;59286;59.274;17.974;2022-09-27T08:21:52;99930.19;;;13.24;83.79
71476;BME280;59286;59.274;17.974;2022-09-27T08:24:19;99918.91;;;13.24;83.47
71476;BME280;59286;59.274;17.974;2022-09-27T08:26:44;99898.59;;;13.12;83.23
71476;BME280;59286;59.274;17.974;2022-09-27T08:29:10;99912.44;;;13.21;83.70
71476;BME280;59286;59.274;17.974;2022-09-27T08:31:37;99916.50;;;13.31;84.17
71476;BME280;59286;59.274;17.974;2022-09-27T08:34:02;99904.88;;;13.32;83.73
71476;BME280;59286;59.274;17.974;2022-09-27T08:36:29;99925.16;;;13.43;83.19
71476;BME280;59286;59.274;17.974;2022-09-27T08:38:56;99917.25;;;13.43;83.24
71476;BME280;59286;59.274;17.974;2022-09-27T08:41:36;99929.00;;;13.58;83.44
71476;BME280;59286;59.274;17.974;2022-09-27T08:49:47;99931.00;;;13.61;82.52
71476;BME280;59286;59.274;17.974;2022-09-27T08:52:44;99929.97;;;13.66;81.83
71476;BME280;59286;59.274;17.974;2022-09-27T08:57:49;99910.59;;;13.46;80.54
71476;BME280;59286;59.274;17.974;2022-09-27T09:00:18;99930.84;;;13.57;80.83
71476;BME280;59286;59.274;17.974;2022-09-27T09:02:44;99939.66;;;13.74;81.54
71476;BME280;59286;59.274;17.974;2022-09-27T09:05:26;99932.81;;;13.73;80.86
71476;BME280;59286;59.274;17.974;2022-09-27T09:10:52;99944.44;;;13.84;80.62
71476;BME280;59286;59.274;17.974;2022-09-27T09:21:30;99955.66;;;13.93;82.13
71476;BME280;59286;59.274;17.974;2022-09-27T09:26:59;99929.84;;;13.86;82.41
71476;BME280;59286;59.274;17.974;2022-09-27T09:34:59;99925.06;;;13.64;81.81
71476;BME280;59286;59.274;17.974;2022-09-27T09:37:39;99945.13;;;13.81;81.69
71476;BME280;59286;59.274;17.974;2022-09-27T09:43:22;99935.47;;;13.85;81.43
71476;BME280;59286;59.274;17.974;2022-09-27T09:45:54;99930.63;;;13.75;81.47
71476;BME280;59286;59.274;17.974;2022-09-27T09:48:41;99951.28;;;13.85;81.85
71476;BME280;59286;59.274;17.974;2022-09-27T09:51:10;99949.84;;;13.87;82.31
71476;BME280;59286;59.274;17.974;2022-09-27T09:53:44;99933.50;;;13.70;81.46
71476;BME280;59286;59.274;17.974;2022-09-27T09:56:32;99948.53;;;13.69;81.70
71476;BME280;59286;59.274;17.974;2022-09-27T09:59:02;99951.91;;;13.57;82.52
71476;BME280;59286;59.274;17.974;2022-09-27T10:01:40;99922.88;;;13.42;82.18
71476;BME280;59286;59.274;17.974;2022-09-27T10:04:23;99940.19;;;13.43;82.77
71476;BME280;59286;59.274;17.974;2022-09-27T10:06:50;99928.44;;;13.28;84.63
71476;BME280;59286;59.274;17.974;2022-09-27T10:09:21;99942.47;;;13.20;85.31
71476;BME280;59286;59.274;17.974;2022-09-27T10:11:48;99928.84;;;13.06;85.90
71476;BME280;59286;59.274;17.974;2022-09-27T10:14:17;99934.44;;;13.05;86.62
71476;BME280;59286;59.274;17.974;2022-09-27T10:16:48;99932.75;;;13.00;87.31
71476;BME280;59286;59.274;17.974;2022-09-27T10:19:16;99937.78;;;12.93;87.34
71476;BME280;59286;59.274;17.974;2022-09-27T10:21:45;99923.72;;;12.77;87.62
71476;BME280;59286;59.274;17.974;2022-09-27T10:24:14;99943.81;;;12.94;88.08
71476;BME280;59286;59.274;17.974;2022-09-27T10:26:42;99936.66;;;12.82;88.22
71476;BME280;59286;59.274;17.974;2022-09-27T10:29:32;99932.06;;;12.79;88.99
71476;BME280;59286;59.274;17.974;2022-09-27T10:32:02;99910.13;;;12.75;88.47
71476;BME280;59286;59.274;17.974;2022-09-27T10:34:37;99902.25;;;12.87;88.09
71476;BME280;59286;59.274;17.974;2022-09-27T10:37:19;99914.72;;;13.11;88.32
71476;BME280;59286;59.274;17.974;2022-09-27T10:39:47;99933.59;;;13.25;87.32
71476;BME280;59286;59.274;17.974;2022-09-27T10:45:24;99939.63;;;13.37;86.25
71476;BME280;59286;59.274;17.974;2022-09-27T10:47:44;99924.84;;;13.33;86.35
71476;BME280;59286;59.274;17.974;2022-09-27T10:50:18;99906.28;;;13.17;87.23
71476;BME280;59286;59.274;17.974;2022-09-27T10:52:47;99922.41;;;13.28;87.14
71476;BME280;59286;59.274;17.974;2022-09-27T10:55:24;99901.69;;;13.26;87.67
71476;BME280;59286;59.274;17.974;2022-09-27T10:57:53;99937.78;;;13.50;87.45
71476;BME280;59286;59.274;17.974;2022-09-27T11:00:24;99909.25;;;13.28;87.69
71476;BME280;59286;59.274;17.974;2022-09-27T11:02:52;99914.19;;;13.29;88.43
71476;BME280;59286;59.274;17.974;2022-09-27T11:08:13;99881.53;;;13.18;88.75
71476;BME280;59286;59.274;17.974;2022-09-27T11:10:38;99907.84;;;13.42;89.46
71476;BME280;59286;59.274;17.974;2022-09-27T11:13:12;99886.31;;;13.28;88.99
71476;BME280;59286;59.274;17.974;2022-09-27T11:15:53;99899.03;;;13.50;89.30
71476;BME280;59286;59.274;17.974;2022-09-27T11:18:32;99894.22;;;13.65;88.58
71476;BME280;59286;59.274;17.974;2022-09-27T11:23:55;99917.47;;;13.87;88.32
71476;BME280;59286;59.274;17.974;2022-09-27T11:30:09;99929.06;;;13.98;88.07
71476;BME280;59286;59.274;17.974;2022-09-27T11:35:35;99932.53;;;14.14;87.47
71476;BME280;59286;59.274;17.974;2022-09-27T11:38:31;99935.38;;;14.33;87.11
71476;BME280;59286;59.274;17.974;2022-09-27T11:46:59;99917.63;;;14.45;84.90
71476;BME280;59286;59.274;17.974;2022-09-27T11:55:19;99938.44;;;14.63;83.28
71476;BME280;59286;59.274;17.974;2022-09-27T11:58:44;99946.03;;;14.64;83.29
71476;BME280;59286;59.274;17.974;2022-09-27T12:09:05;99943.28;;;14.61;82.61
71476;BME280;59286;59.274;17.974;2022-09-27T12:11:38;99946.72;;;14.61;82.33
71476;BME280;59286;59.274;17.974;2022-09-27T12:14:38;99948.13;;;14.58;82.33
71476;BME280;59286;59.274;17.974;2022-09-27T12:16:56;99923.22;;;14.56;82.35
71476;BME280;59286;59.274;17.974;2022-09-27T12:19:28;99947.06;;;14.75;81.96
71476;BME280;59286;59.274;17.974;2022-09-27T12:22:00;99937.03;;;14.65;82.34
71476;BME280;59286;59.274;17.974;2022-09-27T12:24:27;99935.16;;;14.66;81.30
71476;BME280;59286;59.274;17.974;2022-09-27T12:26:57;99921.44;;;14.60;81.59
71476;BME280;59286;59.274;17.974;2022-09-27T12:29:28;99948.53;;;14.73;81.14
71476;BME280;59286;59.274;17.974;2022-09-27T12:32:20;99944.13;;;14.77;81.43
71476;BME280;59286;59.274;17.974;2022-09-27T12:34:56;99941.72;;;14.72;81.28
71476;BME280;59286;59.274;17.974;2022-09-27T12:37:30;99942.13;;;14.74;81.42
71476;BME280;59286;59.274;17.974;2022-09-27T12:42:30;99933.28;;;14.66;81.69
71476;BME280;59286;59.274;17.974;2022-09-27T12:44:57;99940.75;;;14.64;81.44
71476;BME280;59286;59.274;17.974;2022-09-27T12:53:01;99946.97;;;14.72;81.24
71476;BME280;59286;59.274;17.974;2022-09-27T12:56:16;99947.06;;;14.75;81.20
71476;BME280;59286;59.274;17.974;2022-09-27T12:59:34;99913.94;;;14.62;81.69
71476;BME280;59286;59.274;17.974;2022-09-27T13:08:06;99951.56;;;15.02;80.97
71476;BME280;59286;59.274;17.974;2022-09-27T13:11:22;99954.69;;;14.92;81.04
71476;BME280;59286;59.274;17.974;2022-09-27T13:13:54;99962.44;;;14.85;81.34
71476;BME280;59286;59.274;17.974;2022-09-27T13:16:20;99945.56;;;14.74;80.63
71476;BME280;59286;59.274;17.974;2022-09-27T13:18:51;99944.22;;;14.80;81.16
71476;BME280;59286;59.274;17.974;2022-09-27T13:35:34;99946.41;;;14.78;81.20
71476;BME280;59286;59.274;17.974;2022-09-27T13:37:59;99952.78;;;14.77;80.64
71476;BME280;59286;59.274;17.974;2022-09-27T13:40:34;99944.78;;;14.74;80.99
71476;BME280;59286;59.274;17.974;2022-09-27T13:45:48;99956.28;;;14.81;80.90
71476;BME280;59286;59.274;17.974;2022-09-27T13:49:02;99963.03;;;14.79;79.93
71476;BME280;59286;59.274;17.974;2022-09-27T13:57:04;99959.31;;;14.68;80.21
71476;BME280;59286;59.274;17.974;2022-09-27T14:02:12;99963.41;;;14.65;80.46
71476;BME280;59286;59.274;17.974;2022-09-27T14:04:49;99939.16;;;14.47;80.45
71476;BME280;59286;59.274;17.974;2022-09-27T14:07:26;99955.63;;;14.56;80.16
71476;BME280;59286;59.274;17.974;2022-09-27T14:09:57;99955.06;;;14.63;80.47
71476;BME280;59286;59.274;17.974;2022-09-27T14:12:30;99961.75;;;14.61;80.28
71476;BME280;59286;59.274;17.974;2022-09-27T14:14:57;99947.91;;;14.64;80.67
71476;BME280;59286;59.274;17.974;2022-09-27T14:17:24;99975.34;;;14.75;80.11
71476;BME280;59286;59.274;17.974;2022-09-27T14:19:50;99977.31;;;14.78;79.39
71476;BME280;59286;59.274;17.974;2022-09-27T14:22:20;99978.06;;;14.78;79.38
71476;BME280;59286;59.274;17.974;2022-09-27T14:24:51;99974.75;;;14.81;79.20
71476;BME280;59286;59.274;17.974;2022-09-27T14:27:20;99981.91;;;14.81;79.04
71476;BME280;59286;59.274;17.974;2022-09-27T14:29:50;99966.56;;;14.71;79.69
71476;BME280;59286;59.274;17.974;2022-09-27T14:32:22;99950.69;;;14.55;79.42
71476;BME280;59286;59.274;17.974;2022-09-27T14:35:11;99965.59;;;14.63;79.32
71476;BME280;59286;59.274;17.974;2022-09-27T14:38:00;99960.31;;;14.63;80.03
71476;BME280;59286;59.274;17.974;2022-09-27T14:40:28;99963.88;;;14.55;79.75
71476;BME280;59286;59.274;17.974;2022-09-27T14:42:55;99968.50;;;14.58;79.95
71476;BME280;59286;59.274;17.974;2022-09-27T14:45:34;99964.78;;;14.47;79.74
71476;BME280;59286;59.274;17.974;2022-09-27T14:48:01;99986.44;;;14.52;80.02
71476;BME280;59286;59.274;17.974;2022-09-27T14:50:29;99968.00;;;14.40;80.34
71476;BME280;59286;59.274;17.974;2022-09-27T14:52:56;99962.84;;;14.32;80.79
71476;BME280;59286;59.274;17.974;2022-09-27T14:55:25;99954.94;;;14.20;80.55
71476;BME280;59286;59.274;17.974;2022-09-27T14:57:55;99962.41;;;14.18;81.19
71476;BME280;59286;59.274;17.974;2022-09-27T15:00:26;99950.78;;;14.07;81.46
71476;BME280;59286;59.274;17.974;2022-09-27T15:02:54;99969.53;;;14.17;81.50
71476;BME280;59286;59.274;17.974;2022-09-27T15:05:23;99977.25;;;14.10;81.60
71476;BME280;59286;59.274;17.974;2022-09-27T15:07:50;99964.41;;;14.09;81.62
71476;BME280;59286;59.274;17.974;2022-09-27T15:10:21;99976.81;;;14.08;81.97
71476;BME280;59286;59.274;17.974;2022-09-27T15:12:49;99961.78;;;13.97;81.16
71476;BME280;59286;59.274;17.974;2022-09-27T15:15:20;99985.81;;;14.07;81.61
71476;BME280;59286;59.274;17.974;2022-09-27T15:17:47;99969.91;;;13.92;81.81
71476;BME280;59286;59.274;17.974;2022-09-27T15:20:27;99946.22;;;13.68;81.99
71476;BME280;59286;59.274;17.974;2022-09-27T15:22:54;99968.81;;;13.81;81.90
71476;BME280;59286;59.274;17.974;2022-09-27T15:25:42;99948.88;;;13.55;82.03
71476;BME280;59286;59.274;17.974;2022-09-27T15:28:20;99958.06;;;13.61;81.70
71476;BME280;59286;59.274;17.974;2022-09-27T15:30:57;99959.81;;;13.57;81.27